createdAt,value
2022-10-13T00:00:52.919Z,25.08
2022-10-13T00:02:55.635Z,26.95
2022-10-13T00:04:58.254Z,26.98
2022-10-13T00:07:00.870Z,33.60
2022-10-13T00:09:04.164Z,24.88
2022-10-13T00:11:11.728Z,27.95
2022-10-13T00:13:14.949Z,27.25
2022-10-13T00:15:19.592Z,27.10
2022-10-13T00:17:22.191Z,22.63
2022-10-13T00:19:25.048Z,27.52
2022-10-13T00:21:28.538Z,23.60
2022-10-13T00:23:31.083Z,25.33
2022-10-13T00:25:33.655Z,26.98
2022-10-13T00:27:36.226Z,24.08
2022-10-13T00:29:38.818Z,25.30
2022-10-13T00:31:42.730Z,26.33
2022-10-13T00:33:45.397Z,24.15
2022-10-13T00:35:49.562Z,35.00
2022-10-13T00:37:53.271Z,30.75
2022-10-13T00:39:55.933Z,33.58
2022-10-13T00:41:58.943Z,23.90
2022-10-13T00:44:03.248Z,25.38
2022-10-13T00:46:06.022Z,25.52
2022-10-13T00:48:10.283Z,24.67
2022-10-13T00:50:17.186Z,28.30
2022-10-13T00:52:21.665Z,26.38
2022-10-13T00:54:25.765Z,26.20
2022-10-13T00:56:29.676Z,28.60
2022-10-13T00:58:33.665Z,26.27
2022-10-13T01:00:36.666Z,23.10
2022-10-13T01:02:39.371Z,25.55
2022-10-13T01:04:46.285Z,31.75
2022-10-13T01:06:49.723Z,30.95
2022-10-13T01:08:52.361Z,26.38
2022-10-13T01:11:02.133Z,28.25
2022-10-13T01:13:12.978Z,34.75
2022-10-13T01:15:22.402Z,30.73
2022-10-13T01:17:34.855Z,28.98
2022-10-13T01:20:05.653Z,36.75
2022-10-13T01:22:24.567Z,29.70
2022-10-13T01:24:43.935Z,31.45
2022-10-13T01:27:09.173Z,29.17
2022-10-13T01:29:44.502Z,25.38
2022-10-13T01:31:53.083Z,22.33
2022-10-13T01:34:02.639Z,28.23
2022-10-13T01:36:16.114Z,28.67
2022-10-13T01:38:34.315Z,29.50
2022-10-13T01:40:43.889Z,30.73
2022-10-13T01:42:54.422Z,27.63
2022-10-13T01:45:03.487Z,25.15
2022-10-13T01:47:08.288Z,27.60
2022-10-13T01:49:13.626Z,27.63
2022-10-13T01:51:20.761Z,24.20
2022-10-13T01:53:24.370Z,24.02
2022-10-13T01:55:28.604Z,25.95
2022-10-13T01:57:33.891Z,27.27
2022-10-13T01:59:38.503Z,28.08
2022-10-13T02:01:57.870Z,25.85
2022-10-13T02:04:13.123Z,27.48
2022-10-13T02:06:21.864Z,23.20
2022-10-13T02:08:31.430Z,24.98
2022-10-13T02:10:41.109Z,23.00
2022-10-13T02:12:50.269Z,26.25
2022-10-13T02:14:57.037Z,25.25
2022-10-13T02:17:04.625Z,26.83
2022-10-13T02:19:10.137Z,22.52
2022-10-13T02:21:12.734Z,21.40
2022-10-13T02:23:17.757Z,25.70
2022-10-13T02:25:20.391Z,30.02
2022-10-13T02:27:24.103Z,36.55
2022-10-13T02:29:27.115Z,26.00
2022-10-13T02:31:29.718Z,20.45
2022-10-13T02:33:33.849Z,27.27
2022-10-13T02:35:36.523Z,30.48
2022-10-13T02:37:39.109Z,23.50
2022-10-13T02:39:41.823Z,22.13
2022-10-13T02:41:47.609Z,26.27
2022-10-13T02:43:50.176Z,25.85
2022-10-13T02:45:52.753Z,25.70
2022-10-13T02:47:55.360Z,24.60
2022-10-13T02:49:59.291Z,24.05
2022-10-13T02:52:02.045Z,22.30
2022-10-13T02:54:04.763Z,22.38
2022-10-13T02:56:08.016Z,17.17
2022-10-13T02:58:10.584Z,18.60
2022-10-13T03:00:14.643Z,19.77
2022-10-13T03:02:17.900Z,21.70
2022-10-13T03:04:20.765Z,25.70
2022-10-13T03:06:24.741Z,21.10
2022-10-13T03:08:27.456Z,19.52
2022-10-13T03:10:30.999Z,18.30
2022-10-13T03:12:33.619Z,19.20
2022-10-13T03:14:36.595Z,21.70
2022-10-13T03:16:39.250Z,21.30
2022-10-13T03:18:41.932Z,18.40
2022-10-13T03:20:44.861Z,18.15
2022-10-13T03:22:49.934Z,19.02
2022-10-13T03:24:52.749Z,18.90
2022-10-13T03:26:55.392Z,25.65
2022-10-13T03:28:58.061Z,18.77
2022-10-13T03:31:02.525Z,19.67
2022-10-13T03:33:05.740Z,21.42
2022-10-13T03:35:09.245Z,20.90
2022-10-13T03:37:11.859Z,21.90
2022-10-13T03:39:16.243Z,24.65
2022-10-13T03:41:20.142Z,18.52
2022-10-13T03:43:23.229Z,19.55
2022-10-13T03:45:25.844Z,20.52
2022-10-13T03:47:28.480Z,16.83
2022-10-13T03:49:31.056Z,22.50
2022-10-13T03:51:33.817Z,25.08
2022-10-13T03:53:36.759Z,18.20
2022-10-13T03:55:40.695Z,24.70
2022-10-13T03:57:43.281Z,22.75
2022-10-13T03:59:45.883Z,23.15
2022-10-13T04:01:48.537Z,20.13
2022-10-13T04:03:51.641Z,20.30
2022-10-13T04:05:54.205Z,23.33
2022-10-13T04:07:56.757Z,24.30
2022-10-13T04:09:59.381Z,21.48
2022-10-13T04:12:03.324Z,22.10
2022-10-13T04:14:05.935Z,26.00
2022-10-13T04:16:10.466Z,18.55
2022-10-13T04:18:13.025Z,23.67
2022-10-13T04:20:15.742Z,20.30
2022-10-13T04:22:18.866Z,19.63
2022-10-13T04:24:21.784Z,22.38
2022-10-13T04:26:25.826Z,31.08
2022-10-13T04:28:29.834Z,22.02
2022-10-13T04:30:34.064Z,23.23
2022-10-13T04:32:36.622Z,22.90
2022-10-13T04:34:39.185Z,21.55
2022-10-13T04:36:41.812Z,21.35
2022-10-13T04:38:44.487Z,19.95
2022-10-13T04:40:47.058Z,15.90
2022-10-13T04:42:49.663Z,21.58
2022-10-13T04:44:55.999Z,18.13
2022-10-13T04:47:00.688Z,22.13
2022-10-13T04:49:03.381Z,23.05
2022-10-13T04:51:08.159Z,21.30
2022-10-13T04:53:14.206Z,24.45
2022-10-13T04:55:19.330Z,22.67
2022-10-13T04:57:21.887Z,23.20
2022-10-13T04:59:24.477Z,19.70
2022-10-13T05:01:28.403Z,25.40
2022-10-13T05:03:31.359Z,25.85
2022-10-13T05:05:36.712Z,22.52
2022-10-13T05:07:39.342Z,25.77
2022-10-13T05:09:42.092Z,22.08
2022-10-13T05:11:44.860Z,18.08
2022-10-13T05:13:47.530Z,20.75
2022-10-13T05:15:50.257Z,21.52
2022-10-13T05:17:54.171Z,25.73
2022-10-13T05:19:56.719Z,26.40
2022-10-13T05:21:59.330Z,19.95
2022-10-13T05:24:02.432Z,25.65
2022-10-13T05:26:06.004Z,22.27
2022-10-13T05:28:10.034Z,22.10
2022-10-13T05:30:13.541Z,22.65
2022-10-13T05:32:16.159Z,23.45
2022-10-13T05:34:20.174Z,19.77
2022-10-13T05:36:25.062Z,25.13
2022-10-13T05:38:27.633Z,20.70
2022-10-13T05:40:30.252Z,24.17
2022-10-13T05:42:33.227Z,19.30
2022-10-13T05:44:36.268Z,20.83
2022-10-13T05:46:38.881Z,19.83
2022-10-13T05:48:41.461Z,19.80
2022-10-13T05:50:45.359Z,22.88
2022-10-13T05:52:48.030Z,21.95
2022-10-13T05:54:54.041Z,20.38
2022-10-13T05:57:02.733Z,22.25
2022-10-13T05:59:08.705Z,27.42
2022-10-13T06:01:14.269Z,21.77
2022-10-13T06:03:20.164Z,20.60
2022-10-13T06:05:25.303Z,22.55
2022-10-13T06:07:30.594Z,21.15
2022-10-13T06:09:35.744Z,19.63
2022-10-13T06:11:38.311Z,22.30
2022-10-13T06:13:40.934Z,19.83
2022-10-13T06:15:43.530Z,27.80
2022-10-13T06:17:46.115Z,24.70
2022-10-13T06:19:48.714Z,25.20
2022-10-13T06:21:51.527Z,23.23
2022-10-13T06:23:55.514Z,22.90
2022-10-13T06:25:58.104Z,23.95
2022-10-13T06:28:01.052Z,24.40
2022-10-13T06:30:03.644Z,32.92
2022-10-13T06:32:06.572Z,27.80
2022-10-13T06:34:09.197Z,23.60
2022-10-13T06:36:12.100Z,35.22
2022-10-13T06:38:14.721Z,36.45
2022-10-13T06:40:18.662Z,31.05
2022-10-13T06:42:21.572Z,37.13
2022-10-13T06:44:24.541Z,33.38
2022-10-13T06:46:27.565Z,29.83
2022-10-13T06:48:30.590Z,38.83
2022-10-13T06:50:33.557Z,23.05
2022-10-13T06:52:36.182Z,30.77
2022-10-13T06:54:38.795Z,27.95
2022-10-13T06:56:43.093Z,32.15
2022-10-13T06:58:45.967Z,25.52
2022-10-13T07:00:48.575Z,24.98
2022-10-13T07:02:52.784Z,30.45
2022-10-13T07:04:55.884Z,24.27
2022-10-13T07:06:58.464Z,21.27
2022-10-13T07:09:04.046Z,29.65
2022-10-13T07:11:15.892Z,24.17
2022-10-13T07:15:24.596Z,30.95
2022-10-13T07:17:27.645Z,32.10
2022-10-13T07:19:30.237Z,31.60
2022-10-13T07:21:32.807Z,30.15
2022-10-13T07:23:35.444Z,30.17
2022-10-13T07:25:38.776Z,28.00
2022-10-13T07:27:42.053Z,22.73
2022-10-13T07:29:45.966Z,25.05
2022-10-13T07:31:48.542Z,24.80
2022-10-13T07:33:52.026Z,26.40
2022-10-13T07:35:54.582Z,20.75
2022-10-13T07:37:57.140Z,22.92
2022-10-13T07:40:00.350Z,24.90
2022-10-13T07:42:03.137Z,30.15
2022-10-13T07:44:06.195Z,25.60
2022-10-13T07:46:12.903Z,24.00
2022-10-13T07:48:15.807Z,23.67
2022-10-13T07:50:18.499Z,24.95
2022-10-13T07:52:21.528Z,31.80
2022-10-13T07:54:26.597Z,24.58
2022-10-13T07:56:30.052Z,33.08
2022-10-13T07:58:33.059Z,22.95
2022-10-13T08:00:36.264Z,24.35
2022-10-13T08:02:40.284Z,22.98
2022-10-13T08:04:42.880Z,27.00
2022-10-13T08:06:45.470Z,21.10
2022-10-13T08:08:48.099Z,24.98
2022-10-13T08:10:50.749Z,24.42
2022-10-13T08:12:53.346Z,22.25
2022-10-13T08:14:56.089Z,21.52
2022-10-13T09:13:19.903Z,20.35
2022-10-13T09:37:46.269Z,20.48
2022-10-13T09:40:02.410Z,29.73
2022-10-13T09:42:23.769Z,24.52
2022-10-13T09:44:29.875Z,26.90
2022-10-13T09:46:35.220Z,28.85
2022-10-13T09:48:42.282Z,27.48
2022-10-13T09:50:50.184Z,28.02
2022-10-13T09:52:55.015Z,22.70
2022-10-13T10:01:49.755Z,20.90
2022-10-13T10:03:53.185Z,21.52
2022-10-13T10:05:58.191Z,26.33
2022-10-13T10:08:12.842Z,21.35
2022-10-13T10:10:28.023Z,24.45
2022-10-13T10:12:34.794Z,22.63
2022-10-13T10:14:39.180Z,19.00
2022-10-13T10:16:46.070Z,26.80
2022-10-13T10:18:58.435Z,30.55
2022-10-13T10:21:09.350Z,20.52
2022-10-13T10:23:20.223Z,23.88
2022-10-13T10:25:33.173Z,28.50
2022-10-13T10:27:43.907Z,25.20
2022-10-13T10:29:52.370Z,20.57
2022-10-13T10:32:04.084Z,26.85
2022-10-13T10:34:29.286Z,20.90
2022-10-13T10:36:41.456Z,20.10
2022-10-13T10:38:51.587Z,22.20
2022-10-13T10:41:04.629Z,16.83
2022-10-13T10:43:36.429Z,28.42
2022-10-13T10:45:40.793Z,20.67
2022-10-13T10:47:47.041Z,23.77
2022-10-13T10:49:51.858Z,16.73
2022-10-13T10:51:55.477Z,20.55
2022-10-13T10:54:15.273Z,24.98
2022-10-13T10:56:23.957Z,20.33
2022-10-13T10:58:38.625Z,29.55
2022-10-13T11:00:49.452Z,17.52
2022-10-13T11:03:00.975Z,17.30
2022-10-13T11:05:06.376Z,24.00
2022-10-13T11:07:53.996Z,21.60
2022-10-13T11:10:18.860Z,25.45
2022-10-13T11:12:24.337Z,27.63
2022-10-13T11:14:31.906Z,31.25
2022-10-13T11:16:35.716Z,19.85
2022-10-13T11:19:28.720Z,21.00
2022-10-13T11:22:19.474Z,27.77
2022-10-13T11:24:50.449Z,18.85
2022-10-13T11:26:54.452Z,20.40
2022-10-13T11:28:57.101Z,22.48
2022-10-13T11:31:29.776Z,19.58
2022-10-13T11:33:54.512Z,25.98
2022-10-13T11:35:57.164Z,17.00
2022-10-13T11:38:17.980Z,22.55
2022-10-13T11:40:25.996Z,19.52
2022-10-13T11:42:53.318Z,24.08
2022-10-13T11:45:02.612Z,20.75
2022-10-13T11:47:17.396Z,25.67
2022-10-13T11:49:52.281Z,27.33
2022-10-13T11:52:20.385Z,24.70
2022-10-13T11:54:32.550Z,29.10
2022-10-13T11:56:39.704Z,22.25
2022-10-13T11:58:43.675Z,22.90
2022-10-13T12:00:55.326Z,23.15
2022-10-13T12:02:57.942Z,21.67
2022-10-13T12:05:05.043Z,20.38
2022-10-13T12:07:10.766Z,20.23
2022-10-13T12:09:19.192Z,25.88
2022-10-13T12:11:26.401Z,22.58
2022-10-13T12:13:31.485Z,18.95
2022-10-13T12:15:36.361Z,25.08
2022-10-13T12:17:39.445Z,23.17
2022-10-13T12:19:42.053Z,18.02
2022-10-13T12:21:51.210Z,26.30
2022-10-13T12:24:08.617Z,17.83
2022-10-13T12:26:17.378Z,25.30
2022-10-13T12:28:20.842Z,22.13
2022-10-13T12:30:26.082Z,19.38
2022-10-13T12:32:31.323Z,22.88
2022-10-13T12:34:36.312Z,19.02
2022-10-13T12:36:38.936Z,20.33
2022-10-13T12:38:48.251Z,19.10
2022-10-13T12:40:53.436Z,21.65
2022-10-13T12:42:56.927Z,22.45
2022-10-13T12:45:01.117Z,22.08
2022-10-13T12:47:04.064Z,26.20
2022-10-13T12:49:07.392Z,18.98
2022-10-13T12:51:19.590Z,20.42
2022-10-13T12:53:27.146Z,21.27
2022-10-13T12:55:32.713Z,18.17
2022-10-13T12:57:39.025Z,17.75
2022-10-13T12:59:43.807Z,16.85
2022-10-13T13:01:55.169Z,22.58
2022-10-13T13:04:00.279Z,25.13
2022-10-13T13:06:12.309Z,26.63
2022-10-13T13:08:25.343Z,24.23
2022-10-13T13:10:28.050Z,22.55
2022-10-13T13:12:32.089Z,18.67
2022-10-13T13:14:40.212Z,21.50
2022-10-13T13:16:42.861Z,24.00
2022-10-13T13:18:46.040Z,23.80
2022-10-13T13:20:48.689Z,15.73
2022-10-13T13:22:51.867Z,23.85
2022-10-13T13:24:54.683Z,20.63
2022-10-13T13:26:57.327Z,17.88
2022-10-13T13:29:01.250Z,19.60
2022-10-13T13:31:03.840Z,19.08
2022-10-13T13:33:06.487Z,20.15
2022-10-13T13:35:10.207Z,17.23
2022-10-13T13:37:15.657Z,18.67
2022-10-13T13:39:18.375Z,13.90
2022-10-13T13:41:21.955Z,13.23
2022-10-13T13:43:24.761Z,16.80
2022-10-13T13:45:28.656Z,19.33
2022-10-13T13:47:31.230Z,13.60
2022-10-13T13:49:33.813Z,29.23
2022-10-13T13:51:36.568Z,17.30
2022-10-13T13:53:39.154Z,19.15
2022-10-13T13:55:44.434Z,24.65
2022-10-13T13:57:46.996Z,22.70
2022-10-13T13:59:49.682Z,13.73
2022-10-13T14:01:53.696Z,19.30
2022-10-13T14:03:56.343Z,20.10
2022-10-13T14:05:58.936Z,15.43
2022-10-13T14:08:02.282Z,15.73
2022-10-13T14:10:06.268Z,17.20
2022-10-13T14:12:08.971Z,21.13
2022-10-13T14:14:11.673Z,19.88
2022-10-13T14:16:18.597Z,21.05
2022-10-13T14:18:22.508Z,22.73
2022-10-13T14:20:25.160Z,20.67
2022-10-13T14:22:27.767Z,15.88
2022-10-13T14:24:30.349Z,12.27
2022-10-13T14:26:32.970Z,21.60
2022-10-13T14:28:35.611Z,21.60
2022-10-13T14:30:40.283Z,18.40
2022-10-13T14:32:43.260Z,19.88
2022-10-13T14:34:47.192Z,22.63
2022-10-13T14:36:49.813Z,14.98
2022-10-13T14:38:52.627Z,18.10
2022-10-13T14:40:59.487Z,14.98
2022-10-13T14:43:02.075Z,13.68
2022-10-13T14:45:06.510Z,20.92
2022-10-13T14:47:09.139Z,15.43
2022-10-13T14:49:12.144Z,15.15
2022-10-13T14:51:16.844Z,22.42
2022-10-13T14:53:19.480Z,19.90
2022-10-13T14:55:22.039Z,31.20
2022-10-13T14:57:24.699Z,15.02
2022-10-13T14:59:27.440Z,12.32
2022-10-13T15:01:30.379Z,20.40
2022-10-13T15:03:33.543Z,16.88
2022-10-13T15:05:36.209Z,12.10
2022-10-13T15:07:41.206Z,15.02
2022-10-13T15:09:52.819Z,15.38
2022-10-13T15:12:07.205Z,12.73
2022-10-13T15:14:10.710Z,17.15
2022-10-13T15:16:18.193Z,15.70
2022-10-13T15:18:22.880Z,13.55
2022-10-13T15:20:29.153Z,13.40
2022-10-13T15:22:31.920Z,14.30
2022-10-13T15:24:35.808Z,13.02
2022-10-13T15:26:38.418Z,13.52
2022-10-13T15:28:43.382Z,11.85
2022-10-13T15:30:46.633Z,15.88
2022-10-13T15:32:50.155Z,11.57
2022-10-13T15:34:52.725Z,10.07
2022-10-13T15:36:55.250Z,12.20
2022-10-13T15:38:57.804Z,12.05
2022-10-13T15:41:02.577Z,12.45
2022-10-13T15:43:06.290Z,11.52
2022-10-13T15:45:11.158Z,14.98
2022-10-13T15:47:17.167Z,9.95
2022-10-13T15:49:20.240Z,13.75
2022-10-13T15:51:26.756Z,13.32
2022-10-13T15:53:30.856Z,7.78
2022-10-13T15:55:34.417Z,13.27
2022-10-13T15:57:38.495Z,14.60
2022-10-13T15:59:41.221Z,11.85
2022-10-13T16:01:43.822Z,9.25
2022-10-13T16:03:46.405Z,10.60
2022-10-13T16:05:49.043Z,13.18
2022-10-13T16:07:51.645Z,15.38
2022-10-13T16:09:54.253Z,12.65
2022-10-13T16:11:56.804Z,17.13
2022-10-13T16:14:00.729Z,10.07
2022-10-13T16:16:05.521Z,18.10
2022-10-13T16:18:08.658Z,13.35
2022-10-13T16:20:12.358Z,12.63
2022-10-13T16:22:15.189Z,16.40
2022-10-13T16:24:17.764Z,12.50
2022-10-13T16:26:20.715Z,11.65
2022-10-13T16:28:23.354Z,12.52
2022-10-13T16:30:27.889Z,11.27
2022-10-13T16:32:30.742Z,12.30
2022-10-13T16:34:33.354Z,15.75
2022-10-13T16:36:35.890Z,15.55
2022-10-13T16:38:38.527Z,12.32
2022-10-13T16:40:41.381Z,18.33
2022-10-13T16:42:44.907Z,13.07
2022-10-13T16:44:47.603Z,13.13
2022-10-13T16:46:53.792Z,13.52
2022-10-13T16:48:56.370Z,14.65
2022-10-13T16:51:00.695Z,16.52
2022-10-13T16:53:03.247Z,13.65
2022-10-13T16:55:07.338Z,17.63
2022-10-13T16:57:10.321Z,18.33
2022-10-13T16:59:13.040Z,19.20
2022-10-13T17:01:15.692Z,20.08
2022-10-13T17:03:19.835Z,17.92
2022-10-13T17:05:22.429Z,12.50
2022-10-13T17:07:25.065Z,23.65
2022-10-13T17:09:27.777Z,15.60
2022-10-13T17:11:32.327Z,15.73
2022-10-13T17:13:36.945Z,21.38
2022-10-13T17:15:39.625Z,17.70
2022-10-13T17:17:42.201Z,18.15
2022-10-13T17:19:46.097Z,19.50
2022-10-13T17:21:48.648Z,19.88
2022-10-13T17:23:51.443Z,19.15
2022-10-13T17:25:56.017Z,21.45
2022-10-13T17:27:58.579Z,24.80
2022-10-13T17:30:01.143Z,23.50
2022-10-13T17:32:03.700Z,18.48
2022-10-13T17:34:06.632Z,19.35
2022-10-13T17:36:14.899Z,15.82
2022-10-13T17:38:17.427Z,18.75
2022-10-13T17:40:20.098Z,18.42
2022-10-13T17:42:22.905Z,17.13
2022-10-13T17:44:25.560Z,20.48
2022-10-13T17:46:38.929Z,19.83
2022-10-13T17:48:42.453Z,19.17
2022-10-13T17:50:45.102Z,27.60
2022-10-13T17:52:49.175Z,22.17
2022-10-13T17:54:51.729Z,26.63
2022-10-13T17:56:56.094Z,24.02
2022-10-13T17:58:59.675Z,29.92
2022-10-13T18:01:13.556Z,27.10
2022-10-13T18:03:16.457Z,28.38
2022-10-13T18:05:19.173Z,26.33
2022-10-13T18:07:21.934Z,24.98
2022-10-13T18:09:26.341Z,26.00
2022-10-13T18:11:29.075Z,30.60
2022-10-13T18:13:32.115Z,38.40
2022-10-13T18:15:36.818Z,33.88
2022-10-13T18:17:39.434Z,22.20
2022-10-13T18:19:43.074Z,23.58
2022-10-13T18:21:45.631Z,27.63
2022-10-13T18:23:48.177Z,23.67
2022-10-13T18:25:52.170Z,27.05
2022-10-13T18:27:54.797Z,22.70
2022-10-13T18:29:59.012Z,30.65
2022-10-13T18:32:01.687Z,24.42
2022-10-13T18:34:06.598Z,24.88
2022-10-13T18:36:14.942Z,24.05
2022-10-13T18:38:19.941Z,28.48
2022-10-13T18:40:22.605Z,24.63
2022-10-13T18:42:28.028Z,26.40
2022-10-13T18:44:30.589Z,28.05
2022-10-13T18:46:33.455Z,24.30
2022-10-13T18:48:36.585Z,23.52
2022-10-13T18:50:39.632Z,24.85
2022-10-13T18:52:42.193Z,25.02
2022-10-13T18:54:45.509Z,22.60
2022-10-13T18:56:48.098Z,21.40
2022-10-13T18:58:56.962Z,22.75
2022-10-13T19:01:02.490Z,20.17
2022-10-13T19:03:05.359Z,17.13
2022-10-13T19:05:08.411Z,19.00
2022-10-13T19:07:10.965Z,17.50
2022-10-13T19:09:15.403Z,21.33
2022-10-13T19:11:20.342Z,20.88
2022-10-13T19:13:22.926Z,22.35
2022-10-13T19:15:27.012Z,20.65
2022-10-13T19:17:29.750Z,16.63
2022-10-13T19:19:32.365Z,19.08
2022-10-13T19:21:34.972Z,21.52
2022-10-13T19:23:37.626Z,20.30
2022-10-13T19:25:42.160Z,22.65
2022-10-13T19:27:44.866Z,25.10
2022-10-13T19:29:47.523Z,24.30
2022-10-13T19:31:51.442Z,26.02
2022-10-13T19:33:54.899Z,25.77
2022-10-13T19:35:57.520Z,35.28
2022-10-13T19:38:00.090Z,32.40
2022-10-13T19:40:03.419Z,38.55
2022-10-13T19:42:06.141Z,36.72
2022-10-13T19:44:08.736Z,36.53
2022-10-13T19:46:11.410Z,38.65
2022-10-13T19:48:15.750Z,47.95
2022-10-13T19:50:18.502Z,66.53
2022-10-13T19:52:22.524Z,53.47
2022-10-13T19:54:31.465Z,52.05
2022-10-13T19:56:36.483Z,38.42
2022-10-13T19:58:39.053Z,26.70
2022-10-13T20:00:41.699Z,18.73
2022-10-13T20:02:44.290Z,19.70
2022-10-13T20:04:48.205Z,23.77
2022-10-13T20:06:52.041Z,18.05
2022-10-13T20:08:54.613Z,20.63
2022-10-13T20:10:57.211Z,25.15
2022-10-13T20:12:59.833Z,24.80
2022-10-13T20:15:02.414Z,30.25
2022-10-13T20:17:05.078Z,24.08
2022-10-13T20:19:08.184Z,26.40
2022-10-13T20:21:14.767Z,20.48
2022-10-13T20:23:17.406Z,25.55
2022-10-13T20:25:20.433Z,22.02
2022-10-13T20:27:23.834Z,24.90
2022-10-13T20:29:26.672Z,26.30
2022-10-13T20:31:29.459Z,26.50
2022-10-13T20:33:32.786Z,32.38
2022-10-13T20:35:35.369Z,25.48
2022-10-13T20:37:39.361Z,28.40
2022-10-13T20:39:42.024Z,33.78
2022-10-13T20:41:44.749Z,34.08
2022-10-13T20:43:48.573Z,33.30
2022-10-13T20:46:00.466Z,35.95
2022-10-13T20:50:08.463Z,32.60
2022-10-13T20:52:11.089Z,33.22
2022-10-13T20:54:16.559Z,33.50
2022-10-13T20:56:22.060Z,38.08
2022-10-13T20:58:25.470Z,27.58
2022-10-13T21:00:28.174Z,30.50
2022-10-13T21:02:30.814Z,30.40
2022-10-13T21:04:33.480Z,21.73
2022-10-13T21:06:36.397Z,25.60
2022-10-13T21:08:39.014Z,22.98
2022-10-13T21:10:42.944Z,23.75
2022-10-13T21:12:45.592Z,27.13
2022-10-13T21:14:48.167Z,22.38
2022-10-13T21:16:53.292Z,19.13
2022-10-13T21:18:57.673Z,23.90
2022-10-13T21:21:03.551Z,25.83
2022-10-13T21:23:07.120Z,23.25
2022-10-13T21:25:10.374Z,34.65
2022-10-13T21:27:14.333Z,28.50
2022-10-13T21:29:17.032Z,38.28
2022-10-13T21:31:21.418Z,21.02
2022-10-13T21:33:24.070Z,23.40
2022-10-13T21:35:26.871Z,23.30
2022-10-13T21:37:29.466Z,23.58
2022-10-13T21:39:32.042Z,27.98
2022-10-13T21:41:34.699Z,25.35
2022-10-13T21:43:38.859Z,20.75
2022-10-13T21:45:41.452Z,29.63
2022-10-13T21:47:44.026Z,25.33
2022-10-13T21:49:46.594Z,21.67
2022-10-13T21:51:49.386Z,19.98
2022-10-13T21:53:53.927Z,22.35
2022-10-13T21:55:56.519Z,21.80
2022-10-13T21:58:05.157Z,18.13
2022-10-13T22:00:10.956Z,19.02
2022-10-13T22:02:13.733Z,24.88
2022-10-13T22:04:16.293Z,18.27
2022-10-13T22:06:20.051Z,24.77
2022-10-13T22:08:37.335Z,23.77
2022-10-13T22:10:40.683Z,17.30
2022-10-13T22:12:43.273Z,20.27
2022-10-13T22:14:46.111Z,17.88
2022-10-13T22:16:52.085Z,26.25
2022-10-13T22:18:56.327Z,22.10
2022-10-13T22:21:01.939Z,19.45
2022-10-13T22:23:04.547Z,22.65
2022-10-13T22:25:08.735Z,20.88
2022-10-13T22:27:11.377Z,26.38
2022-10-13T22:29:17.944Z,30.33
2022-10-13T22:31:20.755Z,23.08
2022-10-13T22:33:24.730Z,27.75
2022-10-13T22:35:27.335Z,28.75
2022-10-13T22:37:29.958Z,26.75
2022-10-13T22:39:32.701Z,23.17
2022-10-13T22:41:35.888Z,30.23
2022-10-13T22:43:38.711Z,30.90
2022-10-13T22:45:50.712Z,27.90
2022-10-13T22:47:53.685Z,29.33
2022-10-13T22:49:57.869Z,34.72
2022-10-13T22:52:00.545Z,37.65
2022-10-13T22:54:04.023Z,26.80
2022-10-13T22:56:07.399Z,29.15
2022-10-13T22:58:10.317Z,22.15
2022-10-13T23:00:13.977Z,20.85
2022-10-13T23:02:16.614Z,21.83
2022-10-13T23:04:19.170Z,18.90
2022-10-13T23:06:24.845Z,24.10
2022-10-13T23:08:27.574Z,17.85
2022-10-13T23:10:30.147Z,23.67
2022-10-13T23:12:35.155Z,29.00
2022-10-13T23:14:37.820Z,24.08
2022-10-13T23:16:40.437Z,20.15
2022-10-13T23:18:43.376Z,34.33
2022-10-13T23:20:45.931Z,31.33
2022-10-13T23:22:49.891Z,25.33
2022-10-13T23:24:52.539Z,29.48
2022-10-13T23:27:00.217Z,29.45
2022-10-13T23:29:03.389Z,40.92
2022-10-13T23:31:07.899Z,31.27
2022-10-13T23:33:10.458Z,37.42
2022-10-13T23:35:13.133Z,38.38
2022-10-13T23:37:15.738Z,37.17
2022-10-13T23:39:19.672Z,37.42
2022-10-13T23:41:22.312Z,33.60
2022-10-13T23:43:24.936Z,28.88
2022-10-13T23:45:27.505Z,28.92
2022-10-13T23:47:30.073Z,25.33
2022-10-13T23:49:32.651Z,30.27
2022-10-13T23:51:35.252Z,33.00
2022-10-13T23:53:38.543Z,39.90
2022-10-13T23:55:42.454Z,29.98
2022-10-13T23:57:45.035Z,31.50
2022-10-13T23:59:47.820Z,34.97
